createdAt,value
2018-05-13T00:00:46.740Z,100596
2018-05-13T00:03:57.017Z,100595
2018-05-13T00:07:07.268Z,100596
2018-05-13T00:10:17.037Z,100591
2018-05-13T00:13:27.191Z,100590
2018-05-13T00:16:36.880Z,100589
2018-05-13T00:19:48.288Z,100587
2018-05-13T00:22:57.764Z,100585
2018-05-13T00:26:07.132Z,100580
2018-05-13T00:29:17.138Z,100585
2018-05-13T00:32:27.789Z,100585
2018-05-13T00:35:37.667Z,100585
2018-05-13T00:38:48.032Z,100583
2018-05-13T00:41:57.848Z,100580
2018-05-13T00:45:08.137Z,100575
2018-05-13T00:48:18.348Z,100573
2018-05-13T00:51:28.703Z,100568
2018-05-13T00:54:55.796Z,100574
2018-05-13T00:58:05.420Z,100572
2018-05-13T01:01:14.895Z,100570
2018-05-13T01:04:24.537Z,100566
2018-05-13T01:07:33.968Z,100568
2018-05-13T01:10:43.500Z,100564
2018-05-13T01:13:53.415Z,100562
2018-05-13T01:17:02.851Z,100561
2018-05-13T01:20:16.116Z,100564
2018-05-13T01:23:25.733Z,100561
2018-05-13T01:26:35.268Z,100558
2018-05-13T01:29:44.853Z,100555
2018-05-13T01:32:54.259Z,100560
2018-05-13T01:36:04.301Z,100561
2018-05-13T01:39:14.604Z,100555
2018-05-13T01:42:24.448Z,100555
2018-05-13T01:45:34.660Z,100560
2018-05-13T01:48:44.032Z,100557
2018-05-13T01:51:53.488Z,100558
2018-05-13T01:55:03.048Z,100553
2018-05-13T01:58:12.541Z,100550
2018-05-13T02:01:22.221Z,100550
2018-05-13T02:04:32.853Z,100549
2018-05-13T02:07:42.717Z,100549
2018-05-13T02:10:53.111Z,100547
2018-05-13T02:14:03.068Z,100551
2018-05-13T02:17:13.125Z,100545
2018-05-13T02:20:22.931Z,100541
2018-05-13T02:23:35.558Z,100537
2018-05-13T02:26:45.979Z,100536
2018-05-13T02:29:55.678Z,100536
2018-05-13T02:33:05.267Z,100535
2018-05-13T02:36:15.797Z,100530
2018-05-13T02:39:26.449Z,100527
2018-05-13T02:42:36.615Z,100523
2018-05-13T02:45:46.273Z,100522
2018-05-13T02:48:56.740Z,100516
2018-05-13T02:52:06.229Z,100513
2018-05-13T02:55:17.131Z,100513
2018-05-13T02:58:28.380Z,100509
2018-05-13T03:01:38.086Z,100512
2018-05-13T03:04:48.439Z,100512
2018-05-13T03:07:58.324Z,100515
2018-05-13T03:11:11.705Z,100529
2018-05-13T03:14:21.801Z,100522
2018-05-13T03:17:32.947Z,100515
2018-05-13T03:20:43.097Z,100516
2018-05-13T03:23:53.264Z,100517
2018-05-13T03:27:02.889Z,100520
2018-05-13T03:30:12.600Z,100519
2018-05-13T03:33:21.932Z,100521
2018-05-13T03:36:31.428Z,100518
2018-05-13T03:39:41.046Z,100522
2018-05-13T03:42:51.447Z,100522
2018-05-13T03:46:01.372Z,100520
2018-05-13T03:49:11.448Z,100518
2018-05-13T03:52:22.865Z,100523
2018-05-13T03:55:34.878Z,100518
2018-05-13T04:02:01.039Z,100521
2018-05-13T04:05:10.549Z,100517
2018-05-13T04:12:16.835Z,100517
2018-05-13T04:15:26.911Z,100518
2018-05-13T04:18:38.148Z,100514
2018-05-13T04:21:47.664Z,100521
2018-05-13T04:24:59.107Z,100529
2018-05-13T04:28:09.038Z,100541
2018-05-13T04:31:20.468Z,100542
2018-05-13T04:34:30.637Z,100550
2018-05-13T04:37:40.141Z,100555
2018-05-13T04:40:49.836Z,100549
2018-05-13T04:43:59.741Z,100535
2018-05-13T04:47:09.262Z,100534
2018-05-13T04:50:19.718Z,100530
2018-05-13T04:53:29.372Z,100543
2018-05-13T04:56:45.179Z,100544
2018-05-13T04:59:55.943Z,100542
2018-05-13T05:03:05.373Z,100542
2018-05-13T05:06:14.795Z,100536
2018-05-13T05:09:24.893Z,100539
2018-05-13T05:12:34.284Z,100536
2018-05-13T05:15:44.601Z,100533
2018-05-13T05:18:54.860Z,100539
2018-05-13T05:22:04.749Z,100555
2018-05-13T05:25:14.229Z,100577
2018-05-13T05:28:23.710Z,100569
2018-05-13T05:31:33.167Z,100561
2018-05-13T05:34:42.724Z,100571
2018-05-13T05:37:53.034Z,100568
2018-05-13T05:41:03.832Z,100567
2018-05-13T05:44:13.133Z,100569
2018-05-13T05:47:23.377Z,100568
2018-05-13T05:50:33.190Z,100568
2018-05-13T05:53:43.420Z,100572
2018-05-13T05:56:52.952Z,100572
2018-05-13T06:00:02.979Z,100562
2018-05-13T06:03:12.342Z,100556
2018-05-13T06:06:22.267Z,100557
2018-05-13T06:09:32.439Z,100553
2018-05-13T06:12:42.958Z,100556
2018-05-13T06:15:52.449Z,100551
2018-05-13T06:19:01.841Z,100541
2018-05-13T06:22:13.007Z,100543
2018-05-13T06:25:22.533Z,100539
2018-05-13T06:28:32.574Z,100539
2018-05-13T06:31:43.894Z,100532
2018-05-13T06:34:53.758Z,100535
2018-05-13T06:38:03.892Z,100538
2018-05-13T06:41:13.310Z,100539
2018-05-13T06:44:23.160Z,100537
2018-05-13T06:47:32.629Z,100535
2018-05-13T06:50:42.341Z,100538
2018-05-13T06:53:52.068Z,100537
2018-05-13T06:57:01.472Z,100540
2018-05-13T07:00:10.901Z,100539
2018-05-13T07:03:21.140Z,100534
2018-05-13T07:06:35.017Z,100534
2018-05-13T07:09:49.857Z,100529
2018-05-13T07:12:59.415Z,100531
2018-05-13T07:16:09.733Z,100530
2018-05-13T07:19:19.238Z,100527
2018-05-13T07:22:28.760Z,100521
2018-05-13T07:25:38.177Z,100525
2018-05-13T07:28:48.560Z,100523
2018-05-13T07:31:58.010Z,100521
2018-05-13T07:35:08.233Z,100518
2018-05-13T07:38:19.266Z,100514
2018-05-13T07:41:29.625Z,100510
2018-05-13T07:44:39.123Z,100511
2018-05-13T07:47:49.613Z,100509
2018-05-13T07:51:00.084Z,100502
2018-05-13T07:54:09.408Z,100509
2018-05-13T07:57:20.507Z,100513
2018-05-13T08:00:30.342Z,100509
2018-05-13T08:03:40.563Z,100512
2018-05-13T08:06:50.847Z,100525
2018-05-13T08:10:00.526Z,100535
2018-05-13T08:13:10.076Z,100533
2018-05-13T08:16:19.500Z,100527
2018-05-13T08:19:29.005Z,100526
2018-05-13T08:22:39.216Z,100542
2018-05-13T08:25:49.971Z,100543
2018-05-13T08:28:59.812Z,100541
2018-05-13T08:32:09.307Z,100537
2018-05-13T08:35:18.910Z,100537
2018-05-13T08:38:29.168Z,100531
2018-05-13T08:41:39.343Z,100528
2018-05-13T08:44:50.938Z,100514
2018-05-13T08:48:01.438Z,100525
2018-05-13T08:51:11.183Z,100522
2018-05-13T08:54:20.806Z,100520
2018-05-13T08:57:30.337Z,100524
2018-05-13T09:00:41.112Z,100527
2018-05-13T09:03:51.457Z,100522
2018-05-13T09:07:01.743Z,100523
2018-05-13T09:10:12.364Z,100516
2018-05-13T09:13:22.201Z,100523
2018-05-13T09:16:35.904Z,100510
2018-05-13T09:19:45.555Z,100507
2018-05-13T09:22:56.092Z,100508
2018-05-13T09:26:05.964Z,100503
2018-05-13T09:29:15.878Z,100493
2018-05-13T09:32:25.785Z,100494
2018-05-13T09:35:35.337Z,100484
2018-05-13T09:38:48.773Z,100481
2018-05-13T09:41:59.038Z,100474
2018-05-13T09:45:09.212Z,100470
2018-05-13T09:48:18.542Z,100464
2018-05-13T09:51:28.957Z,100460
2018-05-13T09:54:39.280Z,100456
2018-05-13T09:57:49.545Z,100458
2018-05-13T10:00:59.423Z,100472
2018-05-13T10:04:09.791Z,100472
2018-05-13T10:07:20.060Z,100468
2018-05-13T10:10:29.982Z,100461
2018-05-13T10:13:39.282Z,100463
2018-05-13T10:16:49.577Z,100462
2018-05-13T10:19:59.864Z,100454
2018-05-13T10:23:09.508Z,100450
2018-05-13T10:26:19.401Z,100448
2018-05-13T10:29:28.761Z,100448
2018-05-13T10:32:38.235Z,100441
2018-05-13T10:35:47.654Z,100455
2018-05-13T10:38:57.282Z,100451
2018-05-13T10:42:07.228Z,100443
2018-05-13T10:45:16.760Z,100441
2018-05-13T10:48:26.308Z,100435
2018-05-13T10:51:36.005Z,100437
2018-05-13T10:54:45.445Z,100435
2018-05-13T10:57:57.113Z,100417
2018-05-13T11:01:06.677Z,100421
2018-05-13T11:04:17.421Z,100430
2018-05-13T11:07:26.774Z,100424
2018-05-13T11:10:39.972Z,100432
2018-05-13T11:13:50.421Z,100433
2018-05-13T11:17:00.207Z,100433
2018-05-13T11:20:09.786Z,100425
2018-05-13T11:23:19.305Z,100421
2018-05-13T11:26:28.817Z,100426
2018-05-13T11:29:38.361Z,100417
2018-05-13T11:32:48.084Z,100407
2018-05-13T11:35:58.956Z,100414
2018-05-13T11:39:08.438Z,100413
2018-05-13T11:42:17.906Z,100401
2018-05-13T11:45:28.112Z,100394
2018-05-13T11:48:37.729Z,100385
2018-05-13T11:51:47.071Z,100397
2018-05-13T11:54:59.798Z,100387
2018-05-13T11:58:09.382Z,100377
2018-05-13T12:01:19.577Z,100384
2018-05-13T12:04:29.012Z,100378
2018-05-13T12:07:39.251Z,100359
2018-05-13T12:10:49.406Z,100360
2018-05-13T12:14:00.909Z,100354
2018-05-13T12:17:10.245Z,100346
2018-05-13T12:20:19.697Z,100352
2018-05-13T12:23:29.134Z,100352
2018-05-13T12:26:43.194Z,100355
2018-05-13T12:29:52.590Z,100356
2018-05-13T12:33:02.120Z,100351
2018-05-13T12:36:11.510Z,100337
2018-05-13T12:39:21.732Z,100333
2018-05-13T12:42:31.208Z,100331
2018-05-13T12:45:40.668Z,100326
2018-05-13T12:48:50.618Z,100350
2018-05-13T12:52:01.879Z,100331
2018-05-13T12:55:11.862Z,100336
2018-05-13T12:58:21.791Z,100360
2018-05-13T13:01:32.004Z,100400
2018-05-13T13:04:41.508Z,100479
2018-05-13T13:07:50.963Z,100560
2018-05-13T13:11:01.805Z,100540
2018-05-13T13:14:11.972Z,100521
2018-05-13T13:17:21.814Z,100491
2018-05-13T13:20:31.223Z,100477
2018-05-13T13:23:41.516Z,100477
2018-05-13T13:26:51.762Z,100493
2018-05-13T13:30:02.970Z,100495
2018-05-13T13:33:13.014Z,100518
2018-05-13T13:36:23.117Z,100527
2018-05-13T13:39:32.714Z,100536
2018-05-13T13:42:42.572Z,100541
2018-05-13T13:45:52.956Z,100518
2018-05-13T13:49:05.172Z,100502
2018-05-13T13:52:15.397Z,100486
2018-05-13T13:55:25.636Z,100486
2018-05-13T13:58:35.117Z,100473
2018-05-13T14:01:44.964Z,100477
2018-05-13T14:04:55.280Z,100483
2018-05-13T14:08:06.189Z,100485
2018-05-13T14:11:15.608Z,100478
2018-05-13T14:14:25.581Z,100483
2018-05-13T14:17:35.815Z,100497
2018-05-13T14:20:46.057Z,100540
2018-05-13T14:23:55.887Z,100573
2018-05-13T14:27:06.086Z,100602
2018-05-13T14:30:15.536Z,100617
2018-05-13T14:33:25.528Z,100615
2018-05-13T14:36:35.688Z,100623
2018-05-13T14:39:46.181Z,100618
2018-05-13T14:42:56.401Z,100616
2018-05-13T14:46:09.007Z,100601
2018-05-13T14:49:18.500Z,100571
2018-05-13T14:52:27.854Z,100551
2018-05-13T14:55:38.138Z,100570
2018-05-13T14:58:48.028Z,100590
2018-05-13T15:01:57.509Z,100591
2018-05-13T15:05:09.569Z,100597
2018-05-13T15:08:19.648Z,100597
2018-05-13T15:11:29.112Z,100595
2018-05-13T15:14:39.044Z,100601
2018-05-13T15:17:49.320Z,100619
2018-05-13T15:20:59.484Z,100640
2018-05-13T15:24:09.754Z,100657
2018-05-13T15:27:20.000Z,100667
2018-05-13T15:30:29.873Z,100660
2018-05-13T15:33:39.303Z,100638
2018-05-13T15:36:49.709Z,100620
2018-05-13T15:39:59.716Z,100607
2018-05-13T15:43:10.208Z,100594
2018-05-13T15:46:19.892Z,100616
2018-05-13T15:49:29.355Z,100624
2018-05-13T15:52:39.629Z,100628
2018-05-13T15:55:49.076Z,100623
2018-05-13T15:58:58.920Z,100620
2018-05-13T16:02:11.147Z,100610
2018-05-13T16:05:20.874Z,100603
2018-05-13T16:08:31.175Z,100599
2018-05-13T16:11:41.505Z,100605
2018-05-13T16:14:51.520Z,100593
2018-05-13T16:18:01.752Z,100583
2018-05-13T16:21:12.415Z,100571
2018-05-13T16:24:21.965Z,100561
2018-05-13T16:27:32.232Z,100552
2018-05-13T16:30:41.707Z,100546
2018-05-13T16:33:55.894Z,100539
2018-05-13T16:37:06.170Z,100539
2018-05-13T16:40:15.632Z,100531
2018-05-13T16:43:25.181Z,100525
2018-05-13T16:46:34.771Z,100499
2018-05-13T16:49:44.750Z,100495
2018-05-13T16:52:55.020Z,100493
2018-05-13T16:56:04.851Z,100496
2018-05-13T16:59:15.092Z,100485
2018-05-13T17:02:24.595Z,100483
2018-05-13T17:05:34.326Z,100476
2018-05-13T17:08:44.121Z,100477
2018-05-13T17:11:53.581Z,100472
2018-05-13T17:15:03.846Z,100476
2018-05-13T17:18:14.971Z,100482
2018-05-13T17:21:24.566Z,100511
2018-05-13T17:24:34.013Z,100525
2018-05-13T17:27:48.273Z,100527
2018-05-13T17:30:57.725Z,100538
2018-05-13T17:34:07.272Z,100562
2018-05-13T17:37:17.530Z,100589
2018-05-13T17:40:27.835Z,100596
2018-05-13T17:43:37.608Z,100596
2018-05-13T17:46:48.267Z,100591
2018-05-13T17:49:57.836Z,100577
2018-05-13T17:53:07.387Z,100580
2018-05-13T17:56:17.664Z,100581
2018-05-13T17:59:27.548Z,100591
2018-05-13T18:02:37.240Z,100612
2018-05-13T18:05:47.352Z,100614
2018-05-13T18:09:00.799Z,100603
2018-05-13T18:12:11.136Z,100596
2018-05-13T18:15:21.143Z,100598
2018-05-13T18:18:30.635Z,100597
2018-05-13T18:21:41.731Z,100582
2018-05-13T18:24:52.898Z,100567
2018-05-13T18:28:02.272Z,100575
2018-05-13T18:31:12.895Z,100582
2018-05-13T18:34:23.295Z,100573
2018-05-13T18:37:34.081Z,100596
2018-05-13T18:40:44.719Z,100618
2018-05-13T18:43:55.419Z,100621
2018-05-13T18:47:05.073Z,100618
2018-05-13T18:50:14.789Z,100641
2018-05-13T18:53:25.274Z,100650
2018-05-13T18:56:34.742Z,100650
2018-05-13T18:59:46.121Z,100630
2018-05-13T19:02:56.101Z,100614
2018-05-13T19:06:05.545Z,100598
2018-05-13T19:09:19.964Z,100591
2018-05-13T19:12:29.499Z,100566
2018-05-13T19:15:39.049Z,100542
2018-05-13T19:18:53.378Z,100551
2018-05-13T19:22:04.255Z,100565
2018-05-13T19:25:14.313Z,100566
2018-05-13T19:28:24.217Z,100577
2018-05-13T19:31:34.208Z,100596
2018-05-13T19:34:43.399Z,100630
2018-05-13T19:37:53.533Z,100675
2018-05-13T19:41:03.777Z,100694
2018-05-13T19:44:13.642Z,100686
2018-05-13T19:47:23.952Z,100666
2018-05-13T19:50:34.235Z,100654
2018-05-13T19:53:44.761Z,100638
2018-05-13T19:56:54.779Z,100645
2018-05-13T20:00:04.730Z,100619
2018-05-13T20:03:14.615Z,100600
2018-05-13T20:06:24.053Z,100610
2018-05-13T20:09:33.541Z,100589
2018-05-13T20:12:43.612Z,100587
2018-05-13T20:15:53.532Z,100609
2018-05-13T20:19:03.429Z,100635
2018-05-13T20:22:12.829Z,100648
2018-05-13T20:25:23.202Z,100654
2018-05-13T20:28:33.470Z,100673
2018-05-13T20:31:43.045Z,100670
2018-05-13T20:34:52.993Z,100647
2018-05-13T20:38:03.076Z,100650
2018-05-13T20:41:12.687Z,100630
2018-05-13T20:44:23.308Z,100621
2018-05-13T20:47:33.072Z,100633
2018-05-13T20:50:43.097Z,100623
2018-05-13T20:53:52.642Z,100631
2018-05-13T20:57:02.553Z,100637
2018-05-13T21:00:13.162Z,100657
2018-05-13T21:03:23.969Z,100663
2018-05-13T21:06:33.445Z,100666
2018-05-13T21:09:43.364Z,100669
2018-05-13T21:12:52.895Z,100681
2018-05-13T21:16:02.710Z,100681
2018-05-13T21:19:11.963Z,100682
2018-05-13T21:22:21.511Z,100677
2018-05-13T21:25:30.921Z,100675
2018-05-13T21:28:40.949Z,100677
2018-05-13T21:31:51.129Z,100677
2018-05-13T21:35:01.337Z,100679
2018-05-13T21:38:10.817Z,100674
2018-05-13T21:41:20.681Z,100681
2018-05-13T21:44:30.590Z,100676
2018-05-13T21:47:40.877Z,100671
2018-05-13T21:50:51.109Z,100675
2018-05-13T21:54:01.140Z,100674
2018-05-13T21:57:11.181Z,100677
2018-05-13T22:00:21.351Z,100679
2018-05-13T22:03:30.900Z,100680
2018-05-13T22:06:43.742Z,100676
2018-05-13T22:09:53.424Z,100675
2018-05-13T22:13:03.718Z,100674
2018-05-13T22:16:13.600Z,100671
2018-05-13T22:19:22.994Z,100669
2018-05-13T22:22:33.581Z,100668
2018-05-13T22:25:43.149Z,100665
2018-05-13T22:28:53.264Z,100668
2018-05-13T22:32:03.208Z,100661
2018-05-13T22:35:12.634Z,100635
2018-05-13T22:38:21.999Z,100658
2018-05-13T22:41:31.626Z,100653
2018-05-13T22:44:40.968Z,100653
2018-05-13T22:47:50.396Z,100657
2018-05-13T22:50:59.972Z,100657
2018-05-13T22:54:09.421Z,100653
2018-05-13T22:57:18.932Z,100654
2018-05-13T23:00:29.500Z,100649
2018-05-13T23:03:38.827Z,100648
2018-05-13T23:06:49.000Z,100657
2018-05-13T23:09:59.000Z,100644
2018-05-13T23:13:08.698Z,100646
2018-05-13T23:16:18.289Z,100631
2018-05-13T23:19:30.274Z,100634
2018-05-13T23:22:40.114Z,100628
2018-05-13T23:25:49.674Z,100627
2018-05-13T23:28:59.285Z,100630
2018-05-13T23:32:09.775Z,100629
2018-05-13T23:35:20.138Z,100627
2018-05-13T23:38:31.823Z,100612
2018-05-13T23:41:42.239Z,100626
2018-05-13T23:44:51.605Z,100627
2018-05-13T23:48:01.864Z,100622
2018-05-13T23:51:11.408Z,100617
2018-05-13T23:54:20.740Z,100616
2018-05-13T23:57:31.357Z,100614
